Time;durP1;ratioP1;P1;durP2;ratioP2;P2;SDS_P1;SDS_P2;PMS_P1;PMS_P2;Temp;Humidity;BMP_temperature;BMP_pressure;BME280_temperature;BME280_humidity;BME280_pressure;Samples;Min_cycle;Max_cycle;Signal;HPM_P1;HPM_P2
2022/02/15 00:00:31;;;;;;;1.67;1.58;;;;;;;6.24;84.10;99746.50;5018464;28;20408;-78
2022/02/15 00:02:57;;;;;;;1.75;1.65;;;;;;;6.19;84.77;99732.91;5013694;28;20474;-79
2022/02/15 00:05:22;;;;;;;1.67;1.57;;;;;;;6.21;84.09;99743.44;5030163;28;20393;-79
2022/02/15 00:07:47;;;;;;;2.30;1.70;;;;;;;6.19;84.46;99743.66;5018918;28;20412;-79
2022/02/15 00:10:13;;;;;;;1.58;1.48;;;;;;;6.14;84.81;99740.88;5030074;28;20405;-79
2022/02/15 00:12:39;;;;;;;2.93;1.47;;;;;;;6.14;84.16;99737.34;5017057;28;20929;-79
2022/02/15 00:15:07;;;;;;;1.55;1.35;;;;;;;6.14;84.46;99731.97;5020532;28;20428;-79
2022/02/15 00:17:33;;;;;;;2.45;1.42;;;;;;;6.14;84.18;99735.50;5029421;28;20906;-79
2022/02/15 00:19:58;;;;;;;1.55;1.35;;;;;;;6.13;84.12;99733.84;5041621;28;20405;-79
2022/02/15 00:22:24;;;;;;;1.50;1.40;;;;;;;6.11;84.40;99730.59;5016053;28;20468;-79
2022/02/15 00:24:49;;;;;;;2.30;1.60;;;;;;;6.12;83.93;99734.09;5025885;28;20798;-79
2022/02/15 00:27:14;;;;;;;2.47;1.77;;;;;;;6.13;84.31;99728.47;5015591;28;20401;-79
2022/02/15 00:29:39;;;;;;;1.30;1.20;;;;;;;6.09;84.18;99729.19;5017205;28;20477;-79
2022/02/15 00:32:05;;;;;;;1.57;1.53;;;;;;;6.12;84.07;99734.91;5027426;28;20427;-79
2022/02/15 00:34:33;;;;;;;1.27;1.23;;;;;;;6.11;83.80;99735.97;5020661;28;20784;-79
2022/02/15 00:36:59;;;;;;;1.50;1.40;;;;;;;6.10;84.63;99736.19;5026256;28;20395;-79
2022/02/15 00:39:24;;;;;;;1.52;1.27;;;;;;;6.08;84.54;99728.38;5026156;28;20393;-79
2022/02/15 00:41:49;;;;;;;2.30;1.30;;;;;;;6.10;83.77;99736.19;5020078;28;20886;-79
2022/02/15 00:44:15;;;;;;;1.00;1.00;;;;;;;6.08;84.48;99732.91;5022375;28;20431;-79
2022/02/15 00:46:40;;;;;;;1.83;1.67;;;;;;;6.06;84.52;99738.50;5031504;28;20473;-79
2022/02/15 00:49:05;;;;;;;2.10;1.40;;;;;;;6.03;84.23;99733.59;5016763;28;20408;-79
2022/02/15 00:51:30;;;;;;;2.30;1.13;;;;;;;6.03;84.06;99730.91;5022839;28;20407;-79
2022/02/15 00:53:56;;;;;;;1.20;1.20;;;;;;;6.05;84.27;99741.47;5014287;28;20744;-79
2022/02/15 00:56:21;;;;;;;1.40;1.30;;;;;;;6.04;84.57;99739.81;5012556;28;20397;-79
2022/02/15 00:58:46;;;;;;;1.53;1.40;;;;;;;6.01;84.99;99738.41;5026545;28;20411;-78
2022/02/15 01:01:11;;;;;;;2.00;1.30;;;;;;;6.13;84.18;99736.53;5013696;28;20896;-79
2022/02/15 01:03:37;;;;;;;1.57;1.43;;;;;;;6.14;84.63;99734.66;5019555;28;20442;-79
2022/02/15 01:06:02;;;;;;;2.87;1.50;;;;;;;6.16;84.17;99729.88;5024357;28;20391;-79
2022/02/15 01:08:28;;;;;;;3.93;1.60;;;;;;;6.16;84.00;99724.47;5019472;28;20393;-79
2022/02/15 01:10:53;;;;;;;2.20;1.25;;;;;;;6.13;83.98;99730.34;5028651;28;20396;-78
2022/02/15 01:13:19;;;;;;;2.33;1.60;;;;;;;6.16;84.36;99732.56;5015752;28;20412;-78
2022/02/15 01:15:45;;;;;;;2.33;1.20;;;;;;;6.24;83.80;99734.91;5034499;28;20497;-79
2022/02/15 01:18:10;;;;;;;2.05;1.33;;;;;;;6.33;83.52;99735.34;5019701;28;20384;-79
2022/02/15 01:20:36;;;;;;;1.57;1.00;;;;;;;6.39;83.11;99739.84;5014226;28;20768;-79
2022/02/15 01:23:02;;;;;;;0.97;0.97;;;;;;;6.41;82.87;99735.84;5028355;28;20412;-78
2022/02/15 01:25:27;;;;;;;2.65;0.80;;;;;;;6.34;83.58;99737.00;5027558;28;20409;-79
2022/02/15 01:27:54;;;;;;;3.42;1.20;;;;;;;6.36;83.91;99740.28;5020442;28;20472;-79
2022/02/15 01:30:19;;;;;;;0.93;0.80;;;;;;;6.33;83.65;99736.19;5028068;28;20399;-78
2022/02/15 01:32:45;;;;;;;3.30;1.20;;;;;;;6.36;83.28;99745.66;5013608;28;20476;-79
2022/02/15 01:35:10;;;;;;;2.10;1.10;;;;;;;6.43;83.16;99743.66;5032982;28;20404;-79
2022/02/15 01:37:35;;;;;;;3.50;1.10;;;;;;;6.41;83.24;99743.91;5024604;28;20390;-78
2022/02/15 01:40:02;;;;;;;1.17;1.07;;;;;;;6.45;83.29;99744.28;5017544;28;20397;-79
2022/02/15 01:42:27;;;;;;;0.93;0.90;;;;;;;6.51;83.23;99744.16;5028048;28;20420;-79
2022/02/15 01:44:52;;;;;;;1.70;0.90;;;;;;;6.49;83.00;99738.16;5011454;28;20455;-79
2022/02/15 01:47:29;;;;;;;2.03;1.07;;;;;;;6.56;82.34;99744.25;5012798;28;20462;-79
2022/02/15 01:49:56;;;;;;;1.17;1.08;;;;;;;6.55;83.31;99747.97;5014415;28;20408;-79
2022/02/15 01:52:22;;;;;;;2.72;1.10;;;;;;;6.53;82.70;99749.28;5012621;28;20412;-79
2022/02/15 01:54:49;;;;;;;3.57;1.20;;;;;;;6.54;82.99;99746.38;5011468;28;20780;-79
2022/02/15 01:57:15;;;;;;;2.30;1.43;;;;;;;6.59;82.44;99743.75;5013751;28;20823;-79
2022/02/15 01:59:41;;;;;;;1.83;1.02;;;;;;;6.65;82.19;99750.09;5023744;28;20420;-79
2022/02/15 02:02:06;;;;;;;1.93;1.00;;;;;;;6.66;82.29;99743.63;5026310;28;20413;-79
2022/02/15 02:07:15;;;;;;;1.10;1.00;;;;;;;6.71;82.12;99754.53;5019246;28;20400;-79
2022/02/15 02:09:40;;;;;;;3.80;1.20;;;;;;;6.73;81.79;99747.03;5012979;28;20372;-79
2022/02/15 02:12:07;;;;;;;1.30;1.00;;;;;;;6.77;81.74;99756.28;5027501;28;20436;-78
2022/02/15 02:14:32;;;;;;;1.63;0.90;;;;;;;6.76;82.27;99758.16;5021196;28;20396;-79
2022/02/15 02:16:57;;;;;;;2.03;1.10;;;;;;;6.75;81.28;99759.19;5012967;28;20483;-78
2022/02/15 02:19:22;;;;;;;4.07;1.23;;;;;;;6.79;81.65;99751.47;5014283;28;20404;-79
2022/02/15 02:21:48;;;;;;;2.30;0.93;;;;;;;6.77;81.77;99750.88;5015451;28;20399;-78
2022/02/15 02:24:13;;;;;;;3.90;1.20;;;;;;;6.78;82.07;99749.84;5027733;28;20411;-78
2022/02/15 02:26:38;;;;;;;2.33;1.10;;;;;;;6.71;81.80;99752.66;5031903;28;20428;-79
2022/02/15 02:29:04;;;;;;;3.87;1.20;;;;;;;6.83;81.41;99749.13;5018580;28;20411;-79
2022/02/15 02:31:29;;;;;;;1.27;0.90;;;;;;;6.79;81.58;99749.59;5015781;28;20405;-79
2022/02/15 02:33:59;;;;;;;4.17;1.30;;;;;;;6.82;81.45;99753.69;5028058;28;20910;-79
2022/02/15 02:36:25;;;;;;;1.77;1.17;;;;;;;6.83;81.05;99757.19;5021668;28;20459;-78
2022/02/15 02:38:50;;;;;;;6.20;1.80;;;;;;;6.81;81.43;99757.44;5024071;28;20387;-79
2022/02/15 02:41:15;;;;;;;2.75;1.00;;;;;;;6.76;81.18;99754.63;5027808;28;20437;-79
2022/02/15 02:43:40;;;;;;;1.10;0.80;;;;;;;6.77;81.08;99753.59;5015411;28;20918;-78
2022/02/15 02:46:06;;;;;;;3.85;1.17;;;;;;;6.79;81.31;99756.84;5026686;28;20402;-79
2022/02/15 02:48:31;;;;;;;2.83;1.23;;;;;;;6.82;81.30;99763.66;5018907;28;20431;-78
2022/02/15 02:50:58;;;;;;;2.90;1.63;;;;;;;6.84;80.91;99758.84;5017543;28;20418;-79
2022/02/15 02:53:23;;;;;;;1.83;1.15;;;;;;;6.83;81.26;99760.72;5017089;28;20399;-79
2022/02/15 02:55:48;;;;;;;1.63;1.27;;;;;;;6.82;80.82;99766.34;5023014;28;20470;-79
2022/02/15 02:58:14;;;;;;;2.93;1.23;;;;;;;6.82;81.36;99763.66;5022435;28;20423;-79
2022/02/15 03:00:39;;;;;;;3.40;1.20;;;;;;;6.79;80.89;99771.13;5028979;28;20820;-79
2022/02/15 03:03:07;;;;;;;1.27;1.17;;;;;;;6.76;80.87;99773.47;5030095;28;20923;-79
2022/02/15 03:05:33;;;;;;;2.85;1.30;;;;;;;6.78;80.66;99777.56;5021446;28;20916;-78
2022/02/15 03:07:59;;;;;;;2.45;1.10;;;;;;;6.78;80.60;99771.38;5029840;28;20419;-79
2022/02/15 03:10:24;;;;;;;2.03;1.20;;;;;;;6.77;80.93;99775.94;5020155;28;20418;-79
2022/02/15 03:12:49;;;;;;;5.27;1.50;;;;;;;6.78;81.30;99776.78;5029178;28;20388;-79
2022/02/15 03:15:14;;;;;;;2.80;1.60;;;;;;;6.81;80.61;99773.59;5024188;28;20400;-79
2022/02/15 03:17:40;;;;;;;3.73;1.40;;;;;;;6.79;80.81;99773.81;5019923;28;20444;-79
2022/02/15 03:20:05;;;;;;;5.43;1.70;;;;;;;6.74;81.32;99781.81;5017179;28;20412;-79
2022/02/15 03:22:30;;;;;;;2.03;1.23;;;;;;;6.78;81.28;99777.56;5014680;28;20805;-79
2022/02/15 03:24:56;;;;;;;2.07;1.10;;;;;;;6.84;80.23;99778.50;5029359;28;20417;-79
2022/02/15 03:27:21;;;;;;;2.60;1.40;;;;;;;6.82;80.60;99787.91;5020111;28;20464;-79
2022/02/15 03:29:47;;;;;;;3.17;1.17;;;;;;;6.81;80.86;99794.31;5020723;28;20424;-79
2022/02/15 03:32:12;;;;;;;3.53;1.67;;;;;;;6.75;80.63;99794.19;5011561;28;20805;-78
2022/02/15 03:34:37;;;;;;;4.37;1.70;;;;;;;6.73;80.55;99796.31;5015001;28;20404;-79
2022/02/15 03:37:03;;;;;;;4.40;1.43;;;;;;;6.74;81.59;99797.16;5010747;28;20794;-79
2022/02/15 03:39:28;;;;;;;2.88;1.20;;;;;;;6.67;81.31;99799.97;5010197;28;20864;-79
2022/02/15 03:44:37;;;;;;;2.75;1.50;;;;;;;6.73;81.59;99815.16;5015020;28;20417;-80
2022/02/15 03:47:03;;;;;;;2.73;1.50;;;;;;;6.68;81.82;99806.16;5019024;28;20397;-79
2022/02/15 03:49:28;;;;;;;3.53;2.05;;;;;;;6.77;81.54;99812.81;5023851;28;20870;-79
2022/02/15 03:51:53;;;;;;;1.83;1.50;;;;;;;6.74;81.43;99816.00;5014129;28;20756;-79
2022/02/15 03:54:19;;;;;;;4.70;1.70;;;;;;;6.73;81.91;99820.56;5019618;28;20419;-79
2022/02/15 03:56:44;;;;;;;3.65;1.48;;;;;;;6.72;82.04;99820.78;5016807;28;20987;-79
2022/02/15 03:59:09;;;;;;;2.47;1.40;;;;;;;6.77;81.52;99832.50;5009749;28;20466;-79
2022/02/15 04:01:35;;;;;;;3.03;1.53;;;;;;;6.74;81.93;99830.28;5019355;28;20417;-79
2022/02/15 04:04:01;;;;;;;2.72;1.48;;;;;;;6.66;81.42;99829.81;5017446;28;20422;-78
2022/02/15 04:06:26;;;;;;;3.13;1.30;;;;;;;6.75;81.78;99845.34;5028681;28;20432;-79
2022/02/15 04:08:51;;;;;;;1.97;1.47;;;;;;;6.70;81.23;99856.03;5044889;28;20390;-79
2022/02/15 04:11:17;;;;;;;2.40;1.40;;;;;;;6.71;82.12;99849.59;5039933;28;20410;-78
2022/02/15 04:13:42;;;;;;;1.73;1.40;;;;;;;6.73;82.33;99849.34;5036212;28;20453;-79
2022/02/15 04:16:10;;;;;;;3.67;1.50;;;;;;;6.70;82.52;99845.25;5048777;28;20428;-79
2022/02/15 04:18:36;;;;;;;5.65;1.95;;;;;;;6.80;82.36;99850.06;5044900;28;20426;-79
2022/02/15 04:21:01;;;;;;;3.10;1.60;;;;;;;6.73;83.05;99839.41;5036069;28;20893;-79
2022/02/15 04:23:26;;;;;;;3.63;1.50;;;;;;;6.72;83.07;99845.84;5034913;28;20762;-79
2022/02/15 04:25:52;;;;;;;3.27;1.60;;;;;;;6.71;83.54;99852.28;5051707;28;20405;-79
2022/02/15 04:28:18;;;;;;;4.55;1.48;;;;;;;6.65;83.46;99853.22;5047073;28;20876;-79
2022/02/15 04:30:43;;;;;;;3.45;1.63;;;;;;;6.67;83.38;99859.19;5041742;28;20431;-79
2022/02/15 04:33:08;;;;;;;4.73;2.33;;;;;;;6.69;83.69;99857.06;5043773;28;20407;-79
2022/02/15 04:35:34;;;;;;;4.47;1.63;;;;;;;6.78;83.37;99861.03;5038556;28;20411;-79
2022/02/15 04:37:59;;;;;;;3.10;1.60;;;;;;;6.72;83.34;99862.00;5032626;28;20543;-79
2022/02/15 04:40:24;;;;;;;4.30;1.80;;;;;;;6.70;83.69;99866.81;5044901;28;20492;-78
2022/02/15 04:42:50;;;;;;;2.70;1.50;;;;;;;6.68;83.65;99870.78;5038718;28;20411;-79
2022/02/15 04:45:15;;;;;;;5.37;1.60;;;;;;;6.71;83.83;99876.53;5050032;28;20390;-79
2022/02/15 04:47:41;;;;;;;2.50;1.67;;;;;;;6.73;83.26;99876.28;5048125;28;20442;-78
2022/02/15 04:50:08;;;;;;;3.70;2.30;;;;;;;6.71;83.32;99881.09;5049787;28;20849;-79
2022/02/15 04:52:33;;;;;;;7.50;4.47;;;;;;;6.67;83.90;99886.13;5044358;28;20766;-79
2022/02/15 04:54:58;;;;;;;4.67;2.30;;;;;;;6.72;83.48;99890.78;5049852;28;20398;-79
2022/02/15 04:57:23;;;;;;;2.70;1.67;;;;;;;6.70;83.48;99893.72;5032510;28;20419;-79
2022/02/15 04:59:49;;;;;;;3.83;1.73;;;;;;;6.62;83.97;99910.22;5039430;28;20410;-79
2022/02/15 05:02:14;;;;;;;2.47;1.60;;;;;;;6.54;84.31;99909.75;5044016;28;20961;-79
2022/02/15 05:04:48;;;;;;;3.63;2.22;;;;;;;6.54;84.72;99913.25;5049631;28;20420;-79
2022/02/15 05:07:15;;;;;;;4.63;2.30;;;;;;;6.57;85.42;99911.97;5046946;28;20415;-80
2022/02/15 05:09:40;;;;;;;2.72;2.40;;;;;;;6.52;85.63;99917.25;5055702;28;20398;-79
2022/02/15 05:12:06;;;;;;;4.93;2.40;;;;;;;6.58;85.33;99910.94;5040071;28;20855;-78
2022/02/15 05:14:31;;;;;;;2.40;2.20;;;;;;;6.55;85.96;99919.47;5049197;28;20404;-79
2022/02/15 05:16:56;;;;;;;3.20;2.70;;;;;;;6.50;86.55;99919.31;5030975;28;20481;-78
2022/02/15 05:19:22;;;;;;;5.00;2.90;;;;;;;6.39;87.07;99917.44;5039440;28;20497;-78
2022/02/15 05:21:47;;;;;;;4.10;2.57;;;;;;;6.30;88.18;99911.56;5033643;28;20414;-79
2022/02/15 05:24:12;;;;;;;8.60;4.40;;;;;;;6.34;87.80;99911.94;5031408;28;20438;-79
2022/02/15 05:26:37;;;;;;;5.27;3.93;;;;;;;6.41;86.95;99912.66;5038935;28;20401;-79
2022/02/15 05:29:06;;;;;;;6.00;4.20;;;;;;;6.37;87.04;99914.16;5034303;28;20445;-79
2022/02/15 05:31:32;;;;;;;9.20;7.40;;;;;;;6.38;87.30;99911.25;5031772;28;20413;-79
2022/02/15 05:33:57;;;;;;;8.13;5.60;;;;;;;6.34;86.59;99910.06;5030030;28;20764;-79
2022/02/15 05:36:22;;;;;;;9.97;7.40;;;;;;;6.38;87.18;99905.03;5034212;28;20403;-78
2022/02/15 05:38:47;;;;;;;8.90;6.22;;;;;;;6.32;87.06;99908.66;5041052;28;20398;-79
2022/02/15 05:41:13;;;;;;;7.10;4.57;;;;;;;6.35;87.20;99914.41;5037582;28;20410;-79
2022/02/15 05:43:41;;;;;;;8.30;5.20;;;;;;;6.40;87.69;99913.69;5038165;28;20496;-79
2022/02/15 05:46:06;;;;;;;6.30;4.47;;;;;;;6.42;87.30;99925.06;5057280;28;20904;-79
2022/02/15 05:48:32;;;;;;;7.20;4.07;;;;;;;6.45;87.19;99930.81;5035710;28;20470;-79
2022/02/15 05:50:57;;;;;;;6.20;4.07;;;;;;;6.49;86.91;99933.81;5040171;28;20406;-80
2022/02/15 05:53:25;;;;;;;7.63;4.37;;;;;;;6.47;87.34;99939.47;5045735;28;20963;-80
2022/02/15 05:55:52;;;;;;;7.25;3.90;;;;;;;6.45;87.12;99946.97;5040487;28;20452;-79
2022/02/15 05:58:19;;;;;;;6.45;3.97;;;;;;;6.44;87.17;99941.78;5039392;28;20902;-80
2022/02/15 06:00:44;;;;;;;6.05;4.10;;;;;;;6.38;86.80;99943.53;5039835;28;20867;-80
2022/02/15 06:05:53;;;;;;;5.88;4.43;;;;;;;6.33;87.13;99948.78;5040949;28;20513;-80
2022/02/15 06:08:19;;;;;;;6.53;5.50;;;;;;;6.37;87.26;99943.75;5038484;28;20486;-79
2022/02/15 06:10:46;;;;;;;7.27;4.67;;;;;;;6.38;87.52;99951.63;5034947;28;20866;-80
2022/02/15 06:13:12;;;;;;;5.10;4.60;;;;;;;6.38;87.29;99958.88;5036265;28;20408;-79
2022/02/15 06:15:37;;;;;;;5.13;4.45;;;;;;;6.35;87.89;99956.63;5045310;28;20489;-78
2022/02/15 06:18:03;;;;;;;15.73;10.17;;;;;;;6.33;87.95;99956.84;5031675;28;20502;-78
2022/02/15 06:20:28;;;;;;;6.20;5.00;;;;;;;6.30;87.89;99965.38;5041018;28;20385;-79
2022/02/15 06:22:53;;;;;;;5.05;4.50;;;;;;;6.30;88.12;99969.94;5038261;28;20438;-79
2022/02/15 06:25:18;;;;;;;7.60;6.23;;;;;;;6.30;88.53;99978.00;5032238;28;20449;-79
2022/02/15 06:27:44;;;;;;;6.73;5.50;;;;;;;6.41;88.04;99988.00;5041436;28;20859;-79
2022/02/15 06:30:10;;;;;;;7.43;6.50;;;;;;;6.33;88.13;99981.06;5038073;28;20902;-79
2022/02/15 06:32:38;;;;;;;6.85;4.72;;;;;;;6.41;87.83;99982.63;5048475;28;20900;-78
2022/02/15 06:35:04;;;;;;;5.27;4.73;;;;;;;6.42;87.90;99986.97;5051942;28;20465;-79
2022/02/15 06:37:29;;;;;;;5.13;4.63;;;;;;;6.33;88.02;99999.09;5035527;28;20911;-79
2022/02/15 06:39:54;;;;;;;5.43;4.77;;;;;;;6.34;88.15;100001.56;5043835;28;20909;-79
2022/02/15 06:42:21;;;;;;;10.97;4.30;;;;;;;6.31;88.38;100015.47;5031998;28;20395;-79
2022/02/15 06:44:46;;;;;;;4.80;4.30;;;;;;;6.36;88.17;100012.06;5046184;28;20472;-79
2022/02/15 06:47:12;;;;;;;6.63;4.50;;;;;;;6.39;88.04;100019.72;5047191;28;20434;-79
2022/02/15 06:49:37;;;;;;;5.53;4.40;;;;;;;6.39;88.24;100025.09;5037889;28;20451;-78
2022/02/15 06:52:02;;;;;;;6.00;4.20;;;;;;;6.42;88.35;100025.44;5031873;28;20415;-79
2022/02/15 06:54:28;;;;;;;5.10;4.17;;;;;;;6.42;88.01;100028.13;5037995;28;20401;-79
2022/02/15 06:56:53;;;;;;;5.17;3.93;;;;;;;6.49;87.82;100030.72;5031594;28;20885;-79
2022/02/15 06:59:18;;;;;;;7.93;4.23;;;;;;;6.44;87.75;100030.63;5036416;28;20891;-79
2022/02/15 07:01:44;;;;;;;4.77;4.30;;;;;;;6.55;87.50;100041.41;5041225;28;20494;-80
2022/02/15 07:04:11;;;;;;;6.10;4.45;;;;;;;6.57;87.30;100051.97;5031595;28;20417;-77
2022/02/15 07:06:36;;;;;;;5.03;3.97;;;;;;;6.60;86.87;100055.03;5030368;28;20404;-78
2022/02/15 07:09:02;;;;;;;4.75;4.30;;;;;;;6.56;86.68;100066.47;5038013;28;20445;-78
2022/02/15 07:11:27;;;;;;;6.63;4.07;;;;;;;6.57;87.10;100070.81;5031636;28;20418;-78
2022/02/15 07:13:52;;;;;;;4.70;3.60;;;;;;;6.61;87.26;100069.31;5044551;28;20799;-78
2022/02/15 07:16:18;;;;;;;4.27;3.87;;;;;;;6.67;86.39;100063.84;5036307;28;20855;-79
2022/02/15 07:18:44;;;;;;;5.60;3.93;;;;;;;6.68;86.50;100072.75;5034225;28;20393;-78
2022/02/15 07:21:09;;;;;;;4.30;3.47;;;;;;;6.65;86.34;100067.81;5045364;28;20930;-78
2022/02/15 07:23:35;;;;;;;4.90;4.20;;;;;;;6.66;86.06;100069.44;5030975;28;20419;-79
2022/02/15 07:26:01;;;;;;;3.90;3.60;;;;;;;6.68;86.56;100075.44;5035779;28;20444;-79
2022/02/15 07:28:28;;;;;;;4.23;3.83;;;;;;;6.66;86.21;100075.66;5033180;28;20741;-80
2022/02/15 07:30:56;;;;;;;6.25;3.97;;;;;;;6.61;86.53;100080.91;5037179;28;20389;-79
2022/02/15 07:33:21;;;;;;;5.53;4.18;;;;;;;6.58;87.11;100088.63;5045672;28;20402;-80
2022/02/15 07:35:47;;;;;;;6.63;4.70;;;;;;;6.66;86.44;100090.97;5048392;28;20772;-80
2022/02/15 07:38:13;;;;;;;5.20;4.40;;;;;;;6.71;86.16;100099.19;5051333;28;20763;-79
2022/02/15 07:40:38;;;;;;;5.70;4.80;;;;;;;6.80;85.76;100100.53;5040309;28;20435;-79
2022/02/15 07:43:03;;;;;;;4.87;4.40;;;;;;;6.86;85.54;100104.16;5047329;28;20412;-81
2022/02/15 07:45:29;;;;;;;5.10;4.60;;;;;;;6.79;85.36;100098.88;5041112;28;20469;-79
2022/02/15 07:47:54;;;;;;;6.63;5.53;;;;;;;6.73;85.92;100107.88;5038425;28;20402;-79
2022/02/15 07:50:22;;;;;;;6.03;5.35;;;;;;;6.77;85.63;100112.56;5034671;28;20813;-80
2022/02/15 07:52:50;;;;;;;9.07;5.53;;;;;;;6.79;85.93;100110.47;5036957;28;20498;-81
2022/02/15 07:55:17;;;;;;;5.90;5.30;;;;;;;6.88;85.27;100116.38;5033298;28;20909;-80
2022/02/15 07:57:43;;;;;;;5.43;4.85;;;;;;;6.92;85.33;100114.00;5034495;28;20919;-81
2022/02/15 08:00:09;;;;;;;6.45;5.13;;;;;;;7.06;84.68;100120.84;5050839;28;20391;-80
2022/02/15 08:02:34;;;;;;;8.18;5.55;;;;;;;7.08;84.87;100126.84;5038936;28;20478;-80
2022/02/15 08:05:00;;;;;;;5.93;5.40;;;;;;;7.08;85.08;100132.25;5042332;28;20553;-80
2022/02/15 08:07:25;;;;;;;6.13;5.45;;;;;;;7.03;84.30;100132.91;5038118;28;20416;-80
2022/02/15 08:09:51;;;;;;;6.57;5.57;;;;;;;7.14;83.86;100128.63;5041852;28;20407;-83
2022/02/15 08:12:18;;;;;;;5.80;5.13;;;;;;;7.26;83.71;100141.06;5035143;28;20403;-80
2022/02/15 08:14:45;;;;;;;6.60;5.90;;;;;;;7.24;83.61;100148.53;5034456;28;20484;-81
2022/02/15 08:17:10;;;;;;;7.97;5.72;;;;;;;7.12;84.41;100147.69;5062779;28;20404;-80
2022/02/15 08:19:35;;;;;;;7.53;5.63;;;;;;;7.21;83.86;100154.41;5051551;28;20389;-79
2022/02/15 08:22:01;;;;;;;6.17;5.53;;;;;;;7.21;83.80;100149.00;5041123;28;20490;-79
2022/02/15 08:24:26;;;;;;;6.90;4.90;;;;;;;7.31;83.33;100151.13;5029173;28;20423;-79
2022/02/15 08:26:52;;;;;;;5.15;4.68;;;;;;;7.35;84.02;100156.91;5047596;28;20397;-79
2022/02/15 08:29:17;;;;;;;11.73;8.47;;;;;;;7.42;83.55;100163.84;5045780;28;20898;-80
2022/02/15 08:31:43;;;;;;;7.73;5.87;;;;;;;7.57;82.60;100164.22;5035818;28;20996;-79
2022/02/15 08:34:08;;;;;;;5.63;5.00;;;;;;;7.54;83.19;100161.97;5040506;28;20413;-79
2022/02/15 08:36:33;;;;;;;5.70;5.17;;;;;;;7.62;82.80;100168.91;5041785;28;20398;-79
2022/02/15 08:38:59;;;;;;;6.07;5.40;;;;;;;7.64;82.78;100178.41;5034187;28;20387;-80
2022/02/15 08:41:24;;;;;;;5.78;4.55;;;;;;;7.74;81.54;100169.72;5041809;28;20391;-80
2022/02/15 08:43:49;;;;;;;6.77;4.67;;;;;;;7.81;81.72;100171.28;5037764;28;20436;-80
2022/02/15 08:46:15;;;;;;;6.47;5.20;;;;;;;7.77;82.20;100177.38;5045899;28;20447;-81
2022/02/15 08:48:40;;;;;;;5.83;5.00;;;;;;;7.79;81.79;100177.97;5034984;28;20909;-78
2022/02/15 08:51:07;;;;;;;5.77;4.50;;;;;;;7.69;82.54;100183.13;5048879;28;20458;-82
2022/02/15 08:53:32;;;;;;;7.35;5.65;;;;;;;7.83;82.34;100195.34;5047461;28;20480;-79
2022/02/15 08:56:00;;;;;;;5.40;4.90;;;;;;;7.91;81.41;100186.88;5033977;28;20384;-80
2022/02/15 08:58:26;;;;;;;6.43;5.82;;;;;;;7.80;81.60;100201.19;5048286;28;20426;-81
2022/02/15 09:00:52;;;;;;;6.53;5.00;;;;;;;7.91;80.87;100200.38;5049909;28;20868;-80
2022/02/15 09:03:17;;;;;;;7.60;5.27;;;;;;;7.91;81.29;100203.06;5038138;28;20475;-79
2022/02/15 09:05:43;;;;;;;6.00;5.00;;;;;;;8.00;80.93;100207.06;5053588;28;20864;-80
2022/02/15 09:08:08;;;;;;;6.23;5.20;;;;;;;8.19;80.52;100205.91;5034307;28;20466;-79
2022/02/15 09:10:37;;;;;;;5.37;4.83;;;;;;;8.25;80.47;100202.25;5035466;28;20420;-78
2022/02/15 09:13:02;;;;;;;6.03;5.32;;;;;;;8.28;79.64;100209.91;5046294;28;20889;-80
2022/02/15 09:15:28;;;;;;;5.25;4.82;;;;;;;8.15;79.95;100212.00;5038753;28;20415;-79
2022/02/15 09:17:53;;;;;;;6.50;4.80;;;;;;;8.24;79.74;100215.97;5039062;28;20399;-79
2022/02/15 09:20:19;;;;;;;6.33;5.73;;;;;;;8.10;80.23;100220.00;5048734;28;20887;-80
2022/02/15 09:22:44;;;;;;;7.37;4.70;;;;;;;8.08;80.25;100224.78;5045350;28;20959;-80
2022/02/15 09:25:10;;;;;;;6.32;4.50;;;;;;;8.17;79.59;100228.78;5037843;28;20450;-84
2022/02/15 09:27:35;;;;;;;6.60;5.33;;;;;;;8.12;80.08;100236.75;5039871;28;20406;-80
2022/02/15 09:30:00;;;;;;;7.67;5.40;;;;;;;8.02;80.15;100241.91;5047241;28;20397;-79
2022/02/15 09:32:26;;;;;;;6.50;5.87;;;;;;;8.17;80.11;100236.88;5038889;28;20406;-80
2022/02/15 09:34:51;;;;;;;7.80;5.00;;;;;;;8.21;79.60;100233.47;5040073;28;20399;-80
2022/02/15 09:37:16;;;;;;;4.50;4.10;;;;;;;8.46;78.99;100244.06;5040432;28;20402;-79
2022/02/15 09:39:42;;;;;;;8.27;5.27;;;;;;;8.58;78.42;100244.06;5032943;28;20870;-79
2022/02/15 09:42:09;;;;;;;7.70;4.93;;;;;;;8.90;77.09;100245.28;5031954;28;20486;-80
2022/02/15 09:44:34;;;;;;;9.77;6.40;;;;;;;8.88;76.55;100243.88;5034753;28;20966;-80
2022/02/15 09:46:59;;;;;;;7.75;5.65;;;;;;;8.73;77.29;100249.78;5037975;28;20402;-79
2022/02/15 09:52:13;;;;;;;12.37;6.60;;;;;;;8.38;78.31;100254.41;5040406;28;20453;-80
2022/02/15 09:54:39;;;;;;;16.70;9.80;;;;;;;8.40;78.34;100253.09;5031969;28;20399;-79
2022/02/15 09:57:05;;;;;;;8.73;5.75;;;;;;;8.70;78.49;100264.59;5032005;28;20403;-80
2022/02/15 09:59:30;;;;;;;8.50;5.22;;;;;;;8.88;75.96;100262.78;5040714;28;20408;-79
2022/02/15 10:01:56;;;;;;;12.87;7.53;;;;;;;8.64;76.96;100260.13;5039180;28;20416;-79
2022/02/15 10:04:33;;;;;;;13.73;6.60;;;;;;;8.80;76.15;100264.81;5032921;28;20782;-80
2022/02/15 10:07:02;;;;;;;6.03;5.10;;;;;;;8.97;76.02;100262.19;5037342;28;20411;-79
2022/02/15 10:09:28;;;;;;;7.85;5.90;;;;;;;9.04;75.29;100265.56;5032571;28;20529;-80
2022/02/15 10:12:03;;;;;;;13.35;7.43;;;;;;;8.77;75.82;100278.78;5044573;28;20405;-80
2022/02/15 10:14:28;;;;;;;7.28;5.40;;;;;;;8.74;76.56;100268.47;5036061;28;20410;-79
2022/02/15 10:16:54;;;;;;;7.43;4.80;;;;;;;8.91;75.85;100273.94;5059910;28;20405;-79
2022/02/15 10:19:21;;;;;;;7.83;5.30;;;;;;;9.01;75.91;100265.22;5035640;28;20480;-80
2022/02/15 10:21:48;;;;;;;8.93;6.82;;;;;;;9.25;74.43;100281.13;5045876;28;20405;-80
2022/02/15 10:24:14;;;;;;;7.68;5.38;;;;;;;9.48;74.04;100279.41;5043530;28;20894;-79
2022/02/15 10:26:40;;;;;;;6.68;5.28;;;;;;;9.53;72.05;100283.03;5044045;28;20400;-81
2022/02/15 10:29:05;;;;;;;5.17;4.57;;;;;;;9.48;72.24;100282.13;5035831;28;20807;-79
2022/02/15 10:31:41;;;;;;;6.10;5.30;;;;;;;9.43;72.68;100279.31;5036011;28;20496;-79
2022/02/15 10:34:06;;;;;;;5.03;4.63;;;;;;;9.17;73.16;100284.22;5040179;28;20739;-78
2022/02/15 10:36:31;;;;;;;6.03;4.37;;;;;;;8.90;74.21;100288.50;5032196;28;20407;-79
2022/02/15 10:38:57;;;;;;;5.70;4.73;;;;;;;8.88;74.40;100290.63;5031865;28;20402;-79
2022/02/15 10:41:23;;;;;;;5.65;4.97;;;;;;;8.81;74.90;100287.25;5046209;28;20403;-80
2022/02/15 10:43:54;;;;;;;6.72;4.45;;;;;;;8.83;74.75;100285.94;5031651;28;20448;-78
2022/02/15 10:46:22;;;;;;;6.03;4.40;;;;;;;8.79;75.25;100292.88;5031690;28;20414;-80
2022/02/15 10:48:48;;;;;;;5.70;5.20;;;;;;;8.89;75.03;100286.06;5031926;28;20413;-79
2022/02/15 10:51:14;;;;;;;5.88;4.63;;;;;;;8.68;74.86;100288.31;5035641;28;20397;-79
2022/02/15 10:53:40;;;;;;;7.97;4.70;;;;;;;8.53;75.19;100290.66;5039246;28;20756;-79
2022/02/15 10:56:05;;;;;;;9.57;5.30;;;;;;;8.56;75.40;100287.50;5038735;28;20453;-79
2022/02/15 10:58:32;;;;;;;6.38;5.32;;;;;;;8.48;75.66;100292.44;5037369;28;20870;-79
2022/02/15 11:01:03;;;;;;;7.82;6.00;;;;;;;8.46;76.16;100292.69;5034894;28;20762;-79
2022/02/15 11:03:36;;;;;;;7.28;5.63;;;;;;;8.38;76.04;100295.72;5034922;28;20418;-80
2022/02/15 11:06:03;;;;;;;8.13;5.72;;;;;;;8.39;76.25;100294.69;5031490;28;20878;-80
2022/02/15 11:08:30;;;;;;;7.47;5.53;;;;;;;8.33;76.99;100295.63;5046849;28;20390;-80
2022/02/15 11:11:21;;;;;;;4.57;4.15;;;;;;;8.49;75.52;100302.19;5040092;28;20443;-78
2022/02/15 11:13:46;;;;;;;8.18;5.78;;;;;;;8.64;75.33;100299.81;5045374;28;20415;-79
2022/02/15 11:16:16;;;;;;;5.37;4.80;;;;;;;8.80;74.74;100304.50;5052914;28;20768;-81
2022/02/15 11:18:44;;;;;;;5.63;5.13;;;;;;;8.75;74.45;100304.41;5039541;28;20786;-79
2022/02/15 11:21:24;;;;;;;8.15;5.40;;;;;;;8.97;74.43;100301.91;5050153;28;20393;-79
2022/02/15 11:24:02;;;;;;;5.95;4.88;;;;;;;9.18;74.06;100303.97;5037591;28;21087;-79
2022/02/15 11:26:35;;;;;;;7.15;5.07;;;;;;;9.10;73.74;100307.03;5039803;28;20896;-79
2022/02/15 11:29:01;;;;;;;10.52;5.82;;;;;;;8.90;74.30;100307.44;5047666;28;20402;-77
2022/02/15 11:31:29;;;;;;;8.18;5.07;;;;;;;8.99;73.45;100310.59;5042018;28;20411;-78
2022/02/15 11:33:56;;;;;;;6.18;4.35;;;;;;;9.14;73.01;100319.03;5042906;28;20406;-78
2022/02/15 11:36:25;;;;;;;4.18;3.88;;;;;;;9.01;73.57;100313.88;5039232;28;20893;-77
2022/02/15 11:39:02;;;;;;;4.07;3.60;;;;;;;8.98;73.19;100315.19;5043360;28;20405;-77
2022/02/15 11:41:29;;;;;;;3.60;3.30;;;;;;;8.82;73.84;100313.22;5053729;28;20504;-77
2022/02/15 11:44:00;;;;;;;3.60;2.85;;;;;;;9.20;71.99;100310.78;5053483;28;20963;-78